Chapleau Airport
CYLD : now visible

Airfield :











YOU CAN JOIN US ON...

 
LOGIN :

Register | Disclaimer

   EN    FR    IT 

 









Legend :    VFR   Marginal VFR   IFR   Intensive IFR   Very Intensive IFR
Visi :
Ceiling :
>= 8 km
>= 3000ft
5 to 8 km
1000 to 3000 ft
1500m to 5 km
500 to 1000 ft
800 to 1500m
200 to 500 ft
< 800m
< 200 ft
Symbols :   Thunderstorms  Fog  Heavy snow  Heavy precipitations  Wind > 20 kt






- Airport Elevation : 1470 ft
- IATA code : YLD


CYLD - Chapleau

CURRENT METAR :
  • 131700Z 16009KT 120V200 12SM -SN BKN023 OVC048 M13/M15 A3008 RMK SC5SC3 SLP236

EXPIRED METARs :
  • 131624Z 16007KT 120V180 15SM -SN SCT033 OVC040 M13/M15 A3010 RMK SC4SC4 SLP240
  • 131600Z 13006KT 110V180 15SM SCT033 BKN140 M14/M16 A3011 RMK SC4AC2 SLP244
  • 131500Z 15006KT 120V190 15SM SCT040 BKN150 M17/M19 A3012 RMK SC3AC3 SLP250

TAF TAF CYLD
Valid from the 13 at 13:00 until the 14 at 01:00 UTC


131238Z 1313/1401 17005KT P6SM FEW020 SCT200
TEMPO 1313/1316 BKN020
FM131600 16010KT P6SM BKN030 BKN080
TEMPO 1316/1322 5SM -SN BKN020 OVC030
PROB30 1318/1322 2SM -SHSN OVC015
FM132200 16012KT 2SM -SN OVC015 RMK NXT FCST BY 132000Z



MET'MAP, your aeronautical weather chart ! - Copyright ORBIFLY December 2007 - Disclaimer

ORBIFLY MET'MAP TEAM :

Programming & Development : Alexandra Zaïnal
Concept & Development : Baudouin d'Aumeries
Co-Development & Prog : Marc-Olivier Méhu
Technical & hardware support : Manuel Goepfert

Contact : metmap@orbifly.com




SOURCES & CREDITS :

   NOAA       Earth
Advisory